Terminal Aerodrome Forecast
Issued by NWS

Home | Current Version | Previous Version | Graphics & Text | Print | Product List | Glossary On
Versions: 1 2 3 4 5 6 7 8 9 10 11 12 13 14 15 16 17 18 19
000
FTUS43 KGRB 252008 AAA
TAFAUW
TAF AMD
KAUW 252008Z 2520/2618 23008KT P6SM SCT011 BKN025 OVC045
      TEMPO 2520/2522 -SHRA BKN011
     FM252200 24010KT P6SM SCT012 BKN050
      TEMPO 2522/2601 -SHRA BKN012
     FM260100 27010KT P6SM SCT025 BKN120
     FM260500 27011G16KT P6SM BKN015 OVC100
     FM261500 27015G22KT P6SM VCSH BKN025 OVC050=

USA.gov is the U.S. government's official web portal to all federal, state and local government web resources and services.